Time;durP1;ratioP1;P1;durP2;ratioP2;P2;SDS_P1;SDS_P2;PMS_P1;PMS_P2;Temp;Humidity;BMP_temperature;BMP_pressure;BME280_temperature;BME280_humidity;BME280_pressure;Samples;Min_cycle;Max_cycle;Signal;HPM_P1;HPM_P2
2021/05/18 00:00:13;;;;;;;568.42;349.55;;;;;;;;;;5070542;28;20117;-82
2021/05/18 00:02:39;;;;;;;554.22;337.48;;;;;;;;;;5060427;28;20173;-84
2021/05/18 00:05:07;;;;;;;555.75;343.98;;;;;;;;;;5057914;28;20174;-83
2021/05/18 00:07:35;;;;;;;542.08;330.83;;;;;;;;;;5076836;28;20028;-83
2021/05/18 00:12:48;;;;;;;583.83;353.10;;;;;;;;;;5094726;28;20031;-80
2021/05/18 00:15:17;;;;;;;712.10;440.88;;;;;;;;;;5067423;28;20062;-81
2021/05/18 00:17:47;;;;;;;723.17;454.00;;;;;;;;;;5070269;28;20040;-81
2021/05/18 00:20:16;;;;;;;622.67;374.70;;;;;;;;;;5060766;28;20048;-83
2021/05/18 00:22:42;;;;;;;602.47;360.10;;;;;;;;;;5076272;28;20047;-81
2021/05/18 00:25:09;;;;;;;597.35;363.55;;;;;;;;;;5076187;28;20024;-82
2021/05/18 00:27:35;;;;;;;580.70;359.48;;;;;;;;;;5072546;28;20073;-82
2021/05/18 00:30:01;;;;;;;626.40;376.15;;;;;;;;;;5064731;28;20028;-82
2021/05/18 00:32:27;;;;;;;582.67;351.48;;;;;;;;;;5075402;28;20035;-83
2021/05/18 00:34:56;;;;;;;563.90;344.58;;;;;;;;;;5075006;28;20024;-82
2021/05/18 00:37:24;;;;;;;585.55;360.48;;;;;;;;;;5075897;28;20039;-82
2021/05/18 00:39:51;;;;;;;592.33;359.70;;;;;;;;;;5075481;28;20024;-84
2021/05/18 00:42:20;;;;;;;626.05;397.75;;;;;;;;;;5070023;28;20020;-83
2021/05/18 00:44:46;;;;;;;602.40;369.25;;;;;;;;;;5073951;28;20019;-84
2021/05/18 00:47:16;;;;;;;548.00;340.42;;;;;;;;;;5069134;28;20059;-83
2021/05/18 00:49:43;;;;;;;552.88;340.23;;;;;;;;;;5070178;28;20176;-83
2021/05/18 00:52:09;;;;;;;567.78;358.30;;;;;;;;;;5076540;28;20028;-82
2021/05/18 00:55:19;;;;;;;563.80;354.95;;;;;;;;;;5074042;28;20032;-85
2021/05/18 01:00:17;;;;;;;555.55;345.98;;;;;;;;;;5080391;28;20070;-82
2021/05/18 01:02:52;;;;;;;578.45;356.75;;;;;;;;;;5071857;28;20466;-83
2021/05/18 01:05:20;;;;;;;559.63;354.75;;;;;;;;;;5073522;28;20031;-82
2021/05/18 01:07:49;;;;;;;561.30;346.80;;;;;;;;;;5064105;28;20024;-81
2021/05/18 01:10:17;;;;;;;565.67;352.27;;;;;;;;;;5064081;28;20100;-84
2021/05/18 01:12:43;;;;;;;547.70;331.83;;;;;;;;;;5067672;28;20032;-83
2021/05/18 01:15:11;;;;;;;551.03;340.35;;;;;;;;;;5074483;28;20503;-83
2021/05/18 01:17:37;;;;;;;544.92;339.90;;;;;;;;;;5072456;28;20106;-82
2021/05/18 01:20:13;;;;;;;551.20;325.38;;;;;;;;;;5072462;28;20028;-83
2021/05/18 01:22:49;;;;;;;544.70;329.58;;;;;;;;;;5064126;28;20016;-84
2021/05/18 01:25:17;;;;;;;550.05;334.73;;;;;;;;;;5066450;28;20031;-85
2021/05/18 01:27:43;;;;;;;551.55;332.35;;;;;;;;;;5072230;28;20132;-81
2021/05/18 01:30:09;;;;;;;555.15;339.27;;;;;;;;;;5065591;28;20016;-83
2021/05/18 01:32:36;;;;;;;558.88;342.15;;;;;;;;;;5070835;28;20043;-83
2021/05/18 01:35:03;;;;;;;561.97;348.73;;;;;;;;;;5067968;28;20042;-81
2021/05/18 01:37:29;;;;;;;560.30;343.48;;;;;;;;;;5058450;28;20063;-84
2021/05/18 01:40:15;;;;;;;548.10;328.38;;;;;;;;;;5057192;28;20033;-83
2021/05/18 01:42:48;;;;;;;568.90;350.70;;;;;;;;;;5055856;28;20025;-83
2021/05/18 01:45:18;;;;;;;565.35;345.25;;;;;;;;;;5068056;28;20016;-83
2021/05/18 01:47:55;;;;;;;575.72;353.75;;;;;;;;;;5055375;28;20036;-83
2021/05/18 01:50:23;;;;;;;557.35;342.90;;;;;;;;;;5058838;28;20020;-84
2021/05/18 01:52:49;;;;;;;583.97;361.73;;;;;;;;;;5071298;28;20044;-81
2021/05/18 01:55:20;;;;;;;568.13;348.58;;;;;;;;;;5066688;28;20048;-82
2021/05/18 01:57:47;;;;;;;570.67;344.77;;;;;;;;;;5057371;28;20389;-83
2021/05/18 02:00:14;;;;;;;578.40;353.73;;;;;;;;;;5062073;28;20442;-84
2021/05/18 02:02:40;;;;;;;582.67;359.20;;;;;;;;;;5064386;28;20111;-83
2021/05/18 02:05:10;;;;;;;558.88;345.48;;;;;;;;;;5065419;28;20031;-82
2021/05/18 02:07:37;;;;;;;571.55;356.95;;;;;;;;;;5054850;28;20032;-84
2021/05/18 02:10:05;;;;;;;591.35;374.83;;;;;;;;;;5063606;28;20061;-82
2021/05/18 02:12:31;;;;;;;574.63;359.05;;;;;;;;;;5070061;28;20077;-81
2021/05/18 02:15:21;;;;;;;572.80;358.63;;;;;;;;;;5073993;28;20430;-83
2021/05/18 02:17:55;;;;;;;565.47;350.40;;;;;;;;;;5092340;28;20028;-82
2021/05/18 02:20:37;;;;;;;569.47;352.25;;;;;;;;;;5070913;28;20019;-84
2021/05/18 02:26:10;;;;;;;571.45;358.05;;;;;;;;;;5086316;28;20145;-84
2021/05/18 02:28:39;;;;;;;555.70;334.77;;;;;;;;;;5065259;28;20051;-84
2021/05/18 02:31:05;;;;;;;560.50;346.67;;;;;;;;;;5065100;28;20108;-83
2021/05/18 02:33:31;;;;;;;567.63;347.63;;;;;;;;;;5069585;28;20024;-82
2021/05/18 02:35:57;;;;;;;583.38;366.90;;;;;;;;;;5063964;28;20331;-82
2021/05/18 02:38:23;;;;;;;575.00;347.63;;;;;;;;;;5065341;28;20020;-85
2021/05/18 02:40:49;;;;;;;600.70;377.17;;;;;;;;;;5059079;28;20032;-82
2021/05/18 02:43:21;;;;;;;572.78;355.92;;;;;;;;;;5054554;28;20119;-83
2021/05/18 02:51:01;;;;;;;560.38;347.48;;;;;;;;;;5076486;28;20035;-84
2021/05/18 02:53:27;;;;;;;592.38;366.35;;;;;;;;;;5058421;28;20043;-82
2021/05/18 02:58:33;;;;;;;524.40;324.98;;;;;;;;;;5083462;28;20031;-85
2021/05/18 03:01:01;;;;;;;522.45;319.77;;;;;;;;;;5067390;28;20071;-81
2021/05/18 03:03:27;;;;;;;514.92;321.40;;;;;;;;;;5067503;28;20015;-83
2021/05/18 03:05:54;;;;;;;513.85;326.30;;;;;;;;;;5062758;28;20086;-84
2021/05/18 03:08:20;;;;;;;516.55;324.38;;;;;;;;;;5058296;28;20020;-83
2021/05/18 03:10:47;;;;;;;519.75;324.65;;;;;;;;;;5077691;28;20020;-83
2021/05/18 03:13:15;;;;;;;503.02;316.40;;;;;;;;;;5071016;28;20439;-83
2021/05/18 03:15:42;;;;;;;503.83;315.55;;;;;;;;;;5073208;28;20099;-83
2021/05/18 03:18:08;;;;;;;507.42;319.25;;;;;;;;;;5077705;28;20028;-84
2021/05/18 03:20:34;;;;;;;498.88;304.20;;;;;;;;;;5064754;28;20099;-83
2021/05/18 03:22:59;;;;;;;505.38;313.63;;;;;;;;;;5076456;28;20422;-82
2021/05/18 03:25:25;;;;;;;508.50;314.70;;;;;;;;;;5070117;28;20028;-84
2021/05/18 03:27:56;;;;;;;509.35;323.23;;;;;;;;;;5058263;28;20044;-83
2021/05/18 03:35:53;;;;;;;503.33;306.52;;;;;;;;;;5088780;28;20081;-84
2021/05/18 03:38:32;;;;;;;503.17;314.95;;;;;;;;;;5061202;28;20032;-81
2021/05/18 03:41:04;;;;;;;501.35;313.73;;;;;;;;;;5060570;28;20008;-82
2021/05/18 03:52:18;;;;;;;496.13;312.27;;;;;;;;;;5094822;28;20035;-83
2021/05/18 04:02:52;;;;;;;495.52;308.80;;;;;;;;;;5077044;28;20077;-83
2021/05/18 04:18:44;;;;;;;498.08;323.77;;;;;;;;;;5082052;28;20180;-82
2021/05/18 04:59:18;;;;;;;497.90;317.80;;;;;;;;;;5081222;28;20043;-82
2021/05/18 05:08:02;;;;;;;493.67;314.02;;;;;;;;;;5082300;28;20084;-84
2021/05/18 05:15:36;;;;;;;499.65;312.30;;;;;;;;;;5083739;28;20462;-84
2021/05/18 05:18:02;;;;;;;488.55;312.02;;;;;;;;;;5062906;28;20046;-82
2021/05/18 05:20:30;;;;;;;486.08;315.13;;;;;;;;;;5067306;28;20036;-83
2021/05/18 05:22:56;;;;;;;487.90;318.33;;;;;;;;;;5062969;28;20009;-83
2021/05/18 05:25:23;;;;;;;480.38;307.92;;;;;;;;;;5058887;28;20043;-82
2021/05/18 05:27:49;;;;;;;484.20;311.88;;;;;;;;;;5060092;28;20089;-79
2021/05/18 05:30:15;;;;;;;477.95;309.25;;;;;;;;;;5061569;28;20028;-81
2021/05/18 05:32:43;;;;;;;471.65;305.48;;;;;;;;;;5059050;28;20024;-82
2021/05/18 05:35:09;;;;;;;471.42;306.42;;;;;;;;;;5070840;28;20025;-81
2021/05/18 05:37:35;;;;;;;479.38;318.30;;;;;;;;;;5071880;28;20024;-79
2021/05/18 05:40:01;;;;;;;476.88;313.52;;;;;;;;;;5068517;28;20025;-79
2021/05/18 05:42:30;;;;;;;480.98;319.65;;;;;;;;;;5060542;28;20583;-85
2021/05/18 05:44:57;;;;;;;485.92;312.02;;;;;;;;;;5070025;28;20024;-78
2021/05/18 05:47:23;;;;;;;472.63;308.17;;;;;;;;;;5085573;28;20069;-79
2021/05/18 05:49:49;;;;;;;477.85;317.80;;;;;;;;;;5071288;28;20025;-78
2021/05/18 05:52:20;;;;;;;480.65;320.92;;;;;;;;;;5073457;28;20350;-79
2021/05/18 05:54:46;;;;;;;479.92;319.42;;;;;;;;;;5057300;28;20017;-79
2021/05/18 05:57:12;;;;;;;485.15;316.80;;;;;;;;;;5068453;28;20043;-77
2021/05/18 05:59:38;;;;;;;486.45;320.70;;;;;;;;;;5064275;28;20020;-78
2021/05/18 06:02:04;;;;;;;489.33;327.27;;;;;;;;;;5072396;28;20012;-79
2021/05/18 06:04:31;;;;;;;480.02;312.80;;;;;;;;;;5060565;28;20085;-78
2021/05/18 06:06:57;;;;;;;483.52;322.42;;;;;;;;;;5065430;28;20097;-80
2021/05/18 06:09:23;;;;;;;481.42;317.48;;;;;;;;;;5065322;28;20023;-78
2021/05/18 06:34:12;;;;;;;491.10;332.23;;;;;;;;;;5076967;28;20044;-77
2021/05/18 06:37:01;;;;;;;493.00;327.95;;;;;;;;;;5062352;28;20052;-78
2021/05/18 06:47:41;;;;;;;490.38;337.17;;;;;;;;;;5077852;28;20039;-79
2021/05/18 06:52:40;;;;;;;483.67;332.85;;;;;;;;;;5074269;28;20128;-78
2021/05/18 06:55:13;;;;;;;495.73;344.45;;;;;;;;;;5053194;28;20107;-78
2021/05/18 06:57:42;;;;;;;489.98;343.45;;;;;;;;;;5078221;28;20031;-77
2021/05/18 07:00:12;;;;;;;489.63;346.38;;;;;;;;;;5076932;28;20121;-77
2021/05/18 07:02:40;;;;;;;490.48;341.20;;;;;;;;;;5061967;28;20028;-78
2021/05/18 07:05:17;;;;;;;487.85;344.10;;;;;;;;;;5063906;28;20084;-78
2021/05/18 07:07:45;;;;;;;492.05;351.05;;;;;;;;;;5063289;28;20040;-77
2021/05/18 07:10:12;;;;;;;491.52;354.10;;;;;;;;;;5073880;28;20013;-79
2021/05/18 07:12:41;;;;;;;510.15;358.63;;;;;;;;;;5080631;28;20012;-79
2021/05/18 07:15:07;;;;;;;493.83;360.05;;;;;;;;;;5073076;28;20151;-79
2021/05/18 07:17:33;;;;;;;501.05;365.17;;;;;;;;;;5070256;28;20039;-78
2021/05/18 07:19:59;;;;;;;494.75;355.70;;;;;;;;;;5070916;28;20043;-79
2021/05/18 07:22:25;;;;;;;497.83;362.67;;;;;;;;;;5080850;28;20334;-78
2021/05/18 07:24:51;;;;;;;499.73;363.92;;;;;;;;;;5081603;28;20021;-78
2021/05/18 07:27:18;;;;;;;495.58;357.80;;;;;;;;;;5056800;28;20016;-78
2021/05/18 07:29:44;;;;;;;500.05;364.45;;;;;;;;;;5070706;28;20098;-79
2021/05/18 07:32:09;;;;;;;498.63;359.55;;;;;;;;;;5077533;28;20482;-79
2021/05/18 07:34:35;;;;;;;498.55;361.73;;;;;;;;;;5085821;28;20036;-80
2021/05/18 07:37:01;;;;;;;500.52;366.08;;;;;;;;;;5072622;28;20119;-78
2021/05/18 07:39:28;;;;;;;502.02;364.10;;;;;;;;;;5071132;28;20027;-79
2021/05/18 07:41:54;;;;;;;501.30;360.38;;;;;;;;;;5068982;28;20016;-78
2021/05/18 07:44:20;;;;;;;497.77;357.98;;;;;;;;;;5065292;28;20030;-78
2021/05/18 07:46:47;;;;;;;499.65;360.65;;;;;;;;;;5060550;28;20021;-80
2021/05/18 07:50:00;;;;;;;500.42;362.23;;;;;;;;;;5061929;28;20091;-79
2021/05/18 08:05:47;;;;;;;497.88;354.35;;;;;;;;;;5089087;28;20039;-79
2021/05/18 08:08:13;;;;;;;499.95;360.65;;;;;;;;;;5074385;28;20115;-80
2021/05/18 08:10:46;;;;;;;496.73;358.98;;;;;;;;;;5085316;28;20477;-79
2021/05/18 08:13:23;;;;;;;501.98;369.40;;;;;;;;;;5070237;28;20028;-78
2021/05/18 09:49:18;;;;;;;544.30;486.27;;;;;;;;;;5075805;28;20123;-80
2021/05/18 10:35:54;;;;;;;510.25;405.85;;;;;;;;;;5083356;28;20028;-80
2021/05/18 10:38:24;;;;;;;508.13;399.95;;;;;;;;;;5065452;28;20020;-82
2021/05/18 10:41:14;;;;;;;507.83;403.73;;;;;;;;;;5055882;28;20036;-80
2021/05/18 10:43:41;;;;;;;519.27;415.53;;;;;;;;;;5050973;28;20035;-79
2021/05/18 10:46:16;;;;;;;523.28;435.45;;;;;;;;;;5055942;28;20048;-80
2021/05/18 10:48:53;;;;;;;537.10;477.80;;;;;;;;;;5062660;28;20019;-79
2021/05/18 10:51:40;;;;;;;567.35;507.23;;;;;;;;;;5065892;28;20036;-80
2021/05/18 10:54:19;;;;;;;561.53;502.65;;;;;;;;;;5062231;28;20021;-82
2021/05/18 10:56:58;;;;;;;553.60;495.02;;;;;;;;;;5058575;28;20516;-82
2021/05/18 10:59:24;;;;;;;530.67;472.35;;;;;;;;;;5066919;28;20112;-80
2021/05/18 11:02:03;;;;;;;525.65;465.90;;;;;;;;;;5062271;28;20604;-81
2021/05/18 11:04:30;;;;;;;519.72;457.55;;;;;;;;;;5059479;28;20436;-83
2021/05/18 11:06:56;;;;;;;544.33;485.85;;;;;;;;;;5063958;28;20046;-80
2021/05/18 11:09:23;;;;;;;570.38;511.88;;;;;;;;;;5056374;28;20024;-80
2021/05/18 11:11:50;;;;;;;589.20;530.75;;;;;;;;;;5052260;28;20021;-81
2021/05/18 11:14:16;;;;;;;581.95;523.85;;;;;;;;;;5066118;28;20105;-81
2021/05/18 11:16:43;;;;;;;559.83;502.17;;;;;;;;;;5061120;28;20023;-82
2021/05/18 11:21:59;;;;;;;532.45;475.27;;;;;;;;;;5081983;28;20043;-84
2021/05/18 11:24:25;;;;;;;524.25;467.17;;;;;;;;;;5064924;28;20016;-81
2021/05/18 11:26:51;;;;;;;507.75;447.80;;;;;;;;;;5074645;28;20399;-80
2021/05/18 11:29:37;;;;;;;513.08;453.00;;;;;;;;;;5076863;28;20115;-80
2021/05/18 11:32:21;;;;;;;518.67;460.92;;;;;;;;;;5070753;28;20555;-83
2021/05/18 11:34:51;;;;;;;531.80;474.38;;;;;;;;;;5059820;28;20042;-81
2021/05/18 11:37:17;;;;;;;551.30;493.25;;;;;;;;;;5076747;28;20020;-79
2021/05/18 11:39:43;;;;;;;551.05;493.20;;;;;;;;;;5057447;28;20384;-79
2021/05/18 11:42:09;;;;;;;543.97;486.83;;;;;;;;;;5075529;28;20426;-79
2021/05/18 11:44:36;;;;;;;527.78;470.83;;;;;;;;;;5070887;28;20039;-78
2021/05/18 11:47:03;;;;;;;510.67;451.65;;;;;;;;;;5056999;28;20016;-80
2021/05/18 11:49:29;;;;;;;512.97;447.40;;;;;;;;;;5060861;28;20481;-79
2021/05/18 11:51:57;;;;;;;508.27;432.08;;;;;;;;;;5074920;28;20032;-79
2021/05/18 11:54:25;;;;;;;509.20;436.70;;;;;;;;;;5081152;28;20107;-79
2021/05/18 11:56:57;;;;;;;510.77;438.08;;;;;;;;;;5070260;28;20040;-78
2021/05/18 11:59:24;;;;;;;506.75;434.30;;;;;;;;;;5072910;28;20024;-78
2021/05/18 12:01:52;;;;;;;511.52;436.35;;;;;;;;;;5072809;28;20482;-79
2021/05/18 12:04:19;;;;;;;504.90;426.08;;;;;;;;;;5056267;28;20496;-79
2021/05/18 12:06:54;;;;;;;507.00;422.45;;;;;;;;;;5059165;28;20123;-77
2021/05/18 12:09:20;;;;;;;504.48;416.05;;;;;;;;;;5072056;28;20020;-79
2021/05/18 12:12:14;;;;;;;501.48;409.35;;;;;;;;;;5072059;28;20038;-83
2021/05/18 12:14:41;;;;;;;502.98;399.02;;;;;;;;;;5067474;28;20446;-78
2021/05/18 12:17:08;;;;;;;503.80;405.88;;;;;;;;;;5063807;28;20035;-79
2021/05/18 12:19:38;;;;;;;510.85;410.50;;;;;;;;;;5060746;28;20050;-78
2021/05/18 12:22:03;;;;;;;513.53;409.27;;;;;;;;;;5062465;28;20028;-78
2021/05/18 12:24:29;;;;;;;506.90;403.88;;;;;;;;;;5072965;28;20421;-79
2021/05/18 12:26:57;;;;;;;509.48;412.30;;;;;;;;;;5063626;28;20028;-75
2021/05/18 12:29:27;;;;;;;510.60;412.58;;;;;;;;;;5079074;28;20123;-79
2021/05/18 12:31:53;;;;;;;;;;;;;;;;;;5085020;28;20016;-76
2021/05/18 12:34:30;;;;;;;513.60;402.35;;;;;;;;;;5060180;28;20346;-75
2021/05/18 12:36:57;;;;;;;515.38;407.17;;;;;;;;;;5061501;28;20017;-75
2021/05/18 12:39:23;;;;;;;520.28;415.20;;;;;;;;;;5074951;28;20349;-75
2021/05/18 12:41:52;;;;;;;519.78;414.55;;;;;;;;;;5078267;28;20016;-75
2021/05/18 12:44:19;;;;;;;510.85;404.60;;;;;;;;;;5080087;28;20020;-75
2021/05/18 12:46:55;;;;;;;509.25;400.33;;;;;;;;;;5078422;28;20029;-75
2021/05/18 12:49:29;;;;;;;509.80;398.95;;;;;;;;;;5072977;28;20043;-75
2021/05/18 12:52:24;;;;;;;509.60;395.65;;;;;;;;;;5068236;28;20024;-77
2021/05/18 12:54:55;;;;;;;505.85;394.33;;;;;;;;;;5040409;28;20086;-75
2021/05/18 12:57:21;;;;;;;;;;;;;;;;;;5075560;28;20024;-75
2021/05/18 12:59:56;;;;;;;507.33;392.58;;;;;;;;;;5066043;28;20241;-75
2021/05/18 13:02:42;;;;;;;504.70;393.17;;;;;;;;;;5058765;28;20035;-76
2021/05/18 13:05:13;;;;;;;508.33;392.33;;;;;;;;;;5073120;28;20043;-75
2021/05/18 13:07:40;;;;;;;510.05;399.52;;;;;;;;;;5076650;28;20028;-75
2021/05/18 13:10:06;;;;;;;512.08;407.33;;;;;;;;;;5078906;28;20091;-76
2021/05/18 13:12:32;;;;;;;515.95;411.60;;;;;;;;;;5079721;28;20011;-75
2021/05/18 13:15:00;;;;;;;513.47;407.05;;;;;;;;;;5079413;28;20358;-76
2021/05/18 13:17:26;;;;;;;508.83;403.40;;;;;;;;;;5078458;28;21780;-74
2021/05/18 13:20:07;;;;;;;509.73;403.42;;;;;;;;;;5064690;28;20446;-75
2021/05/18 13:22:35;;;;;;;507.63;399.73;;;;;;;;;;5071622;28;20028;-75
2021/05/18 13:27:55;;;;;;;506.85;399.35;;;;;;;;;;5078730;28;20093;-77
2021/05/18 13:30:22;;;;;;;500.35;392.35;;;;;;;;;;5090116;28;20044;-75
2021/05/18 13:32:48;;;;;;;506.65;402.90;;;;;;;;;;5081616;28;20480;-76
2021/05/18 13:35:19;;;;;;;504.17;406.88;;;;;;;;;;5082396;28;20016;-76
2021/05/18 13:37:45;;;;;;;503.98;405.33;;;;;;;;;;5084528;28;20158;-76
2021/05/18 13:40:16;;;;;;;504.70;408.60;;;;;;;;;;5086915;28;20012;-76
2021/05/18 13:42:42;;;;;;;;;;;;;;;;;;5081801;28;20358;-76
2021/05/18 13:45:09;;;;;;;501.67;392.95;;;;;;;;;;5079374;28;19983;-75
2021/05/18 13:47:35;;;;;;;502.85;401.92;;;;;;;;;;5080305;28;20043;-76
2021/05/18 13:50:01;;;;;;;500.98;396.67;;;;;;;;;;5059894;28;20017;-76
2021/05/18 13:52:27;;;;;;;508.83;411.27;;;;;;;;;;5056152;28;20316;-75
2021/05/18 13:54:55;;;;;;;499.10;397.40;;;;;;;;;;5067263;28;20636;-76
2021/05/18 13:57:21;;;;;;;504.60;408.80;;;;;;;;;;5054871;28;20016;-75
2021/05/18 13:59:49;;;;;;;503.33;411.27;;;;;;;;;;5074684;28;20021;-75
2021/05/18 14:02:15;;;;;;;505.48;406.73;;;;;;;;;;5079894;28;20012;-76
2021/05/18 14:04:41;;;;;;;506.75;410.27;;;;;;;;;;5063228;28;20575;-75
2021/05/18 14:07:28;;;;;;;505.63;405.60;;;;;;;;;;5071902;28;20036;-76
2021/05/18 14:09:54;;;;;;;501.13;397.58;;;;;;;;;;5083209;28;20018;-76
2021/05/18 14:12:20;;;;;;;507.48;413.23;;;;;;;;;;5076412;28;20030;-76
2021/05/18 14:14:47;;;;;;;512.30;426.23;;;;;;;;;;5057398;28;20017;-76
2021/05/18 14:17:13;;;;;;;516.60;441.73;;;;;;;;;;5055334;28;20028;-77
2021/05/18 14:19:39;;;;;;;519.22;454.45;;;;;;;;;;5074328;28;20035;-76
2021/05/18 14:22:06;;;;;;;525.05;467.20;;;;;;;;;;5061330;28;20038;-76
2021/05/18 14:24:40;;;;;;;520.13;461.85;;;;;;;;;;5075896;28;20385;-77
2021/05/18 14:27:12;;;;;;;519.50;453.58;;;;;;;;;;5070472;28;20379;-77
2021/05/18 14:29:38;;;;;;;532.78;463.17;;;;;;;;;;5059327;28;20052;-76
2021/05/18 14:32:04;;;;;;;533.05;454.02;;;;;;;;;;5067975;28;20012;-76
2021/05/18 14:34:30;;;;;;;511.48;427.52;;;;;;;;;;5078115;28;20019;-77
2021/05/18 14:36:59;;;;;;;511.75;429.77;;;;;;;;;;5084825;28;20099;-76
2021/05/18 14:39:36;;;;;;;516.17;421.50;;;;;;;;;;5083720;28;20039;-75
2021/05/18 14:44:48;;;;;;;507.08;412.02;;;;;;;;;;5083637;28;20411;-77
2021/05/18 14:47:21;;;;;;;507.83;408.75;;;;;;;;;;5058742;28;20045;-76
2021/05/18 14:55:18;;;;;;;518.13;417.13;;;;;;;;;;5075480;28;20055;-77
2021/05/18 14:57:44;;;;;;;515.45;415.48;;;;;;;;;;5057794;28;20035;-77
2021/05/18 15:00:11;;;;;;;521.03;432.35;;;;;;;;;;5070947;28;20024;-76
2021/05/18 15:02:37;;;;;;;529.42;441.48;;;;;;;;;;5058163;28;20350;-77
2021/05/18 15:05:03;;;;;;;532.90;438.17;;;;;;;;;;5062478;28;20016;-75
2021/05/18 15:07:29;;;;;;;533.67;455.98;;;;;;;;;;5054582;28;20509;-75
2021/05/18 15:09:55;;;;;;;533.00;455.83;;;;;;;;;;5062627;28;20024;-76
2021/05/18 15:12:22;;;;;;;533.10;456.77;;;;;;;;;;5068206;28;20024;-75
2021/05/18 15:14:48;;;;;;;538.85;458.88;;;;;;;;;;5079732;28;20536;-81
2021/05/18 15:17:14;;;;;;;532.70;451.08;;;;;;;;;;5080039;28;20013;-78
2021/05/18 15:19:40;;;;;;;526.83;446.42;;;;;;;;;;5059092;28;20417;-77
2021/05/18 15:22:07;;;;;;;529.83;445.02;;;;;;;;;;5077925;28;20038;-76
2021/05/18 15:24:33;;;;;;;527.60;447.52;;;;;;;;;;5066255;28;20481;-77
2021/05/18 15:26:59;;;;;;;522.60;441.92;;;;;;;;;;5065226;28;20020;-76
2021/05/18 15:29:26;;;;;;;523.60;437.27;;;;;;;;;;5068838;28;20403;-77
2021/05/18 15:31:52;;;;;;;528.22;444.52;;;;;;;;;;5079166;28;20021;-78
2021/05/18 15:34:18;;;;;;;521.20;431.67;;;;;;;;;;5060222;28;20089;-76
2021/05/18 15:36:44;;;;;;;521.42;431.88;;;;;;;;;;5086372;28;20012;-75
2021/05/18 15:39:10;;;;;;;521.13;429.05;;;;;;;;;;5064507;28;20035;-77
2021/05/18 15:41:36;;;;;;;527.83;441.08;;;;;;;;;;5073873;28;20092;-77
2021/05/18 15:44:03;;;;;;;523.65;442.20;;;;;;;;;;5080659;28;20106;-77
2021/05/18 15:46:29;;;;;;;523.08;441.38;;;;;;;;;;5077365;28;20039;-78
2021/05/18 15:48:55;;;;;;;517.63;432.13;;;;;;;;;;5060610;28;20027;-77
2021/05/18 15:51:21;;;;;;;525.25;447.48;;;;;;;;;;5060737;28;20034;-79
2021/05/18 15:53:47;;;;;;;518.42;439.10;;;;;;;;;;5063638;28;20016;-77
2021/05/18 15:56:13;;;;;;;517.20;439.45;;;;;;;;;;5072531;28;20028;-78
2021/05/18 15:58:39;;;;;;;515.53;436.70;;;;;;;;;;5075222;28;20115;-76
2021/05/18 16:01:05;;;;;;;517.75;436.75;;;;;;;;;;5059691;28;20480;-76
2021/05/18 16:03:31;;;;;;;520.00;438.52;;;;;;;;;;5062566;28;20028;-76
2021/05/18 16:06:02;;;;;;;519.65;438.23;;;;;;;;;;5061953;28;20042;-76
2021/05/18 16:10:54;;;;;;;513.08;411.77;;;;;;;;;;5065485;28;20344;-77
2021/05/18 16:13:21;;;;;;;521.22;427.35;;;;;;;;;;5046420;28;20027;-76
2021/05/18 16:15:47;;;;;;;521.25;425.05;;;;;;;;;;5069779;28;20123;-78
2021/05/18 16:18:13;;;;;;;514.38;417.40;;;;;;;;;;5065953;28;20083;-77
2021/05/18 16:20:39;;;;;;;524.88;429.83;;;;;;;;;;5061401;28;20442;-76
2021/05/18 16:23:05;;;;;;;515.53;414.75;;;;;;;;;;5062923;28;20036;-77
2021/05/18 16:25:31;;;;;;;512.10;409.92;;;;;;;;;;5052026;28;20024;-77
2021/05/18 16:27:57;;;;;;;526.97;425.17;;;;;;;;;;5061995;28;20060;-77
2021/05/18 16:30:23;;;;;;;523.25;424.73;;;;;;;;;;5050582;28;20123;-76
2021/05/18 16:32:49;;;;;;;522.70;422.13;;;;;;;;;;5057900;28;20109;-76
2021/05/18 16:35:15;;;;;;;516.10;416.27;;;;;;;;;;5059486;28;20155;-76
2021/05/18 16:37:42;;;;;;;512.13;414.25;;;;;;;;;;5066733;28;20036;-76
2021/05/18 16:40:09;;;;;;;517.03;416.50;;;;;;;;;;5066715;28;20021;-77
2021/05/18 16:42:36;;;;;;;521.15;425.58;;;;;;;;;;5062372;28;20054;-76
2021/05/18 16:45:06;;;;;;;515.85;419.42;;;;;;;;;;5072353;28;20113;-78
2021/05/18 16:47:32;;;;;;;517.83;408.83;;;;;;;;;;5078811;28;20040;-75
2021/05/18 16:49:58;;;;;;;512.30;411.95;;;;;;;;;;5071618;28;20104;-77
2021/05/18 16:52:24;;;;;;;508.73;400.52;;;;;;;;;;5075556;28;20205;-76
2021/05/18 16:54:50;;;;;;;510.10;401.58;;;;;;;;;;5073164;28;20202;-77
2021/05/18 16:57:16;;;;;;;513.58;410.55;;;;;;;;;;5059991;28;20418;-76
2021/05/18 16:59:42;;;;;;;510.20;407.00;;;;;;;;;;5077258;28;20020;-75
2021/05/18 17:02:10;;;;;;;511.92;405.20;;;;;;;;;;5076676;28;20093;-75
2021/05/18 17:04:36;;;;;;;508.52;396.65;;;;;;;;;;5061353;28;20417;-75
2021/05/18 17:07:03;;;;;;;514.53;411.58;;;;;;;;;;5079883;28;20044;-76
2021/05/18 17:09:30;;;;;;;512.88;414.92;;;;;;;;;;5074843;28;20023;-74
2021/05/18 17:11:56;;;;;;;515.10;410.55;;;;;;;;;;5074276;28;20043;-76
2021/05/18 17:14:23;;;;;;;513.35;407.67;;;;;;;;;;5061641;28;20013;-75
2021/05/18 17:16:49;;;;;;;515.92;407.50;;;;;;;;;;5064081;28;20111;-76
2021/05/18 17:19:15;;;;;;;511.88;405.25;;;;;;;;;;5065990;28;20408;-78
2021/05/18 17:21:41;;;;;;;507.88;394.85;;;;;;;;;;5061498;28;20060;-77
2021/05/18 17:24:08;;;;;;;510.23;399.10;;;;;;;;;;5068603;28;20453;-78
2021/05/18 17:26:34;;;;;;;506.08;388.92;;;;;;;;;;5084124;28;20024;-78
2021/05/18 17:29:00;;;;;;;510.10;392.65;;;;;;;;;;5057746;28;20398;-78
2021/05/18 17:31:26;;;;;;;505.92;386.10;;;;;;;;;;5057133;28;20031;-77
2021/05/18 17:33:52;;;;;;;510.83;394.55;;;;;;;;;;5057647;28;20362;-78
2021/05/18 17:36:18;;;;;;;506.38;385.60;;;;;;;;;;5066968;28;20099;-78
2021/05/18 17:38:44;;;;;;;507.70;387.92;;;;;;;;;;5067540;28;20028;-78
2021/05/18 17:41:10;;;;;;;509.55;387.40;;;;;;;;;;5088844;28;20035;-79
2021/05/18 17:43:36;;;;;;;509.02;391.13;;;;;;;;;;5063080;28;20102;-78
2021/05/18 17:46:03;;;;;;;510.02;394.90;;;;;;;;;;5070317;28;20011;-78
2021/05/18 17:48:29;;;;;;;513.97;395.92;;;;;;;;;;5056650;28;20032;-78
2021/05/18 17:50:55;;;;;;;510.67;392.70;;;;;;;;;;5057923;28;20031;-77
2021/05/18 17:53:22;;;;;;;508.13;393.55;;;;;;;;;;5065976;28;20027;-78
2021/05/18 17:55:48;;;;;;;507.02;391.17;;;;;;;;;;5081321;28;20461;-79
2021/05/18 17:58:15;;;;;;;502.77;383.42;;;;;;;;;;5067590;28;20021;-78
2021/05/18 18:00:41;;;;;;;504.17;382.42;;;;;;;;;;5083188;28;20022;-77
2021/05/18 18:03:07;;;;;;;503.80;378.70;;;;;;;;;;5068203;28;20449;-78
2021/05/18 18:05:33;;;;;;;506.00;384.65;;;;;;;;;;5077681;28;20048;-77
2021/05/18 18:07:59;;;;;;;503.88;377.48;;;;;;;;;;5061896;28;20489;-77
2021/05/18 18:10:25;;;;;;;505.58;380.80;;;;;;;;;;5089311;28;20020;-77
2021/05/18 18:12:51;;;;;;;506.83;388.50;;;;;;;;;;5071383;28;20024;-77
2021/05/18 18:15:18;;;;;;;501.85;377.67;;;;;;;;;;5059630;28;20017;-78
2021/05/18 18:17:47;;;;;;;501.20;376.17;;;;;;;;;;5065525;28;20024;-78
2021/05/18 18:20:13;;;;;;;504.58;382.98;;;;;;;;;;5066242;28;20436;-78
2021/05/18 18:22:39;;;;;;;499.02;377.00;;;;;;;;;;5066594;28;20048;-78
2021/05/18 18:25:05;;;;;;;503.58;374.15;;;;;;;;;;5062549;28;20024;-77
2021/05/18 18:27:31;;;;;;;503.10;374.20;;;;;;;;;;5053795;28;20029;-77
2021/05/18 18:29:58;;;;;;;500.20;373.13;;;;;;;;;;5087726;28;20040;-77
2021/05/18 18:32:24;;;;;;;499.73;374.33;;;;;;;;;;5073675;28;20708;-77
2021/05/18 18:34:50;;;;;;;501.55;373.52;;;;;;;;;;5057542;28;20111;-77
2021/05/18 18:37:16;;;;;;;505.33;381.15;;;;;;;;;;5066415;28;20028;-77
2021/05/18 18:39:43;;;;;;;504.88;376.23;;;;;;;;;;5059447;28;20138;-77
2021/05/18 18:42:09;;;;;;;507.23;379.90;;;;;;;;;;5060642;28;20315;-78
2021/05/18 18:44:35;;;;;;;501.13;368.20;;;;;;;;;;5052990;28;20043;-77
2021/05/18 18:47:01;;;;;;;500.20;372.23;;;;;;;;;;5063558;28;20081;-78
2021/05/18 18:49:34;;;;;;;499.65;364.23;;;;;;;;;;5056300;28;20021;-78
2021/05/18 18:52:02;;;;;;;499.15;367.05;;;;;;;;;;5080742;28;20050;-78
2021/05/18 18:54:28;;;;;;;501.17;368.77;;;;;;;;;;5059517;28;20023;-77
2021/05/18 18:56:54;;;;;;;500.40;368.33;;;;;;;;;;5083403;28;20611;-77
2021/05/18 18:59:20;;;;;;;494.58;354.50;;;;;;;;;;5066967;28;20028;-77
2021/05/18 19:01:52;;;;;;;499.25;363.80;;;;;;;;;;5053244;28;20020;-78